Time;durP1;ratioP1;P1;durP2;ratioP2;P2;SDS_P1;SDS_P2;PMS_P1;PMS_P2;Temp;Humidity;BMP_temperature;BMP_pressure;BME280_temperature;BME280_humidity;BME280_pressure;Samples;Min_cycle;Max_cycle;Signal;HPM_P1;HPM_P2
2023/07/28 00:03:38;;;;;;;3.90;2.30;;;24.10;55.10;;;;;;221827;1257;24250;-44
2023/07/28 00:08:42;;;;;;;2.30;2.10;;;24.10;55.10;;;;;;221737;1263;22509;-42
2023/07/28 00:13:46;;;;;;;4.10;2.30;;;24.10;55.20;;;;;;222172;1264;22526;-44
2023/07/28 00:18:50;;;;;;;1.90;1.80;;;24.10;55.70;;;;;;221728;1268;24247;-47
2023/07/28 00:23:54;;;;;;;2.50;1.70;;;24.10;55.20;;;;;;221698;1270;23010;-45
2023/07/28 00:28:59;;;;;;;2.20;1.90;;;24.10;55.30;;;;;;221947;1270;24260;-47
2023/07/28 00:34:04;;;;;;;3.20;1.70;;;24.10;54.90;;;;;;221796;1263;22516;-42
2023/07/28 00:39:07;;;;;;;2.10;1.90;;;24.10;55.10;;;;;;229959;1263;22167;-43
2023/07/28 00:44:11;;;;;;;3.10;1.80;;;24.20;54.80;;;;;;226794;1262;22570;-44
2023/07/28 00:49:16;;;;;;;3.30;1.70;;;24.40;54.80;;;;;;222686;1267;22526;-43
2023/07/28 00:54:20;;;;;;;2.00;1.70;;;24.30;54.70;;;;;;221932;1267;22612;-44
2023/07/28 00:59:24;;;;;;;3.40;2.10;;;24.20;54.90;;;;;;222120;1266;25326;-44
2023/07/28 01:04:28;;;;;;;1.70;1.60;;;24.10;55.30;;;;;;221790;1256;22635;-42
2023/07/28 01:09:41;;;;;;;1.90;1.80;;;24.10;55.70;;;;;;222841;1259;24237;-44
2023/07/28 01:14:47;;;;;;;2.00;1.90;;;24.10;55.10;;;;;;221909;1268;22646;-45
2023/07/28 01:19:52;;;;;;;1.70;1.60;;;24.10;55.20;;;;;;221676;1268;23757;-44
2023/07/28 01:25:30;;;;;;;2.40;1.80;;;24.10;55.40;;;;;;222069;1268;25262;-42
2023/07/28 01:30:34;;;;;;;1.70;1.60;;;24.10;55.60;;;;;;221857;1257;22618;-42
2023/07/28 01:35:38;;;;;;;2.40;1.70;;;24.10;56.20;;;;;;221813;1263;22507;-44
2023/07/28 01:40:42;;;;;;;1.90;1.80;;;24.10;55.50;;;;;;221879;1263;23547;-44
2023/07/28 01:45:47;;;;;;;2.00;1.90;;;24.10;55.60;;;;;;221930;1259;23954;-44
2023/07/28 01:50:51;;;;;;;1.90;1.50;;;24.10;55.60;;;;;;221577;1265;23421;-43
2023/07/28 01:55:55;;;;;;;2.00;1.90;;;24.10;55.70;;;;;;221632;1263;23889;-44
2023/07/28 02:00:59;;;;;;;2.50;1.50;;;24.10;55.70;;;;;;221792;1246;23941;-45
2023/07/28 02:06:03;;;;;;;1.90;1.80;;;24.10;55.70;;;;;;221899;1269;22619;-45
2023/07/28 02:11:07;;;;;;;3.30;1.50;;;24.10;56.20;;;;;;221893;1263;22568;-42
2023/07/28 02:16:13;;;;;;;3.90;1.40;;;24.10;55.70;;;;;;221752;1266;303973;-43
2023/07/28 02:21:17;;;;;;;1.60;1.50;;;24.10;55.80;;;;;;221913;1263;22518;-42
2023/07/28 02:26:21;;;;;;;2.50;1.80;;;24.10;55.80;;;;;;221945;1261;22499;-42
2023/07/28 02:31:25;;;;;;;2.10;2.00;;;24.10;55.70;;;;;;221872;1266;23911;-43
2023/07/28 02:36:30;;;;;;;1.80;1.70;;;24.10;55.70;;;;;;223140;1269;22512;-44
2023/07/28 02:41:34;;;;;;;1.60;1.50;;;24.10;55.80;;;;;;230034;1266;22150;-43
2023/07/28 02:46:38;;;;;;;2.80;1.90;;;24.30;55.50;;;;;;221874;1269;22724;-45
2023/07/28 02:51:43;;;;;;;1.80;1.70;;;24.30;55.20;;;;;;222174;1255;22514;-44
2023/07/28 02:56:47;;;;;;;1.80;1.60;;;24.20;55.90;;;;;;221859;1269;24407;-43
2023/07/28 03:01:51;;;;;;;2.20;2.00;;;24.20;55.90;;;;;;221974;1269;22524;-42
2023/07/28 03:06:56;;;;;;;1.70;1.60;;;24.10;56.60;;;;;;221994;1269;22679;-43
2023/07/28 03:12:01;;;;;;;1.80;1.70;;;24.10;56.50;;;;;;222076;1266;25234;-44
2023/07/28 03:17:05;;;;;;;2.10;2.00;;;24.10;56.20;;;;;;221842;1266;24243;-45
2023/07/28 03:22:09;;;;;;;1.70;1.60;;;24.10;56.30;;;;;;221818;1269;25210;-45
2023/07/28 03:27:14;;;;;;;2.10;1.90;;;24.10;56.30;;;;;;222278;1266;25444;-41
2023/07/28 03:32:18;;;;;;;2.00;1.90;;;24.10;56.20;;;;;;221925;1263;22770;-43
2023/07/28 03:37:22;;;;;;;2.30;1.90;;;24.10;56.30;;;;;;222123;1269;22567;-44
2023/07/28 03:42:26;;;;;;;2.00;1.90;;;24.10;56.50;;;;;;222155;1263;22740;-45
2023/07/28 03:47:30;;;;;;;2.00;1.90;;;24.10;56.60;;;;;;221893;1264;25572;-44
2023/07/28 03:52:35;;;;;;;4.60;2.20;;;24.10;56.60;;;;;;221859;1269;22524;-44
2023/07/28 03:57:39;;;;;;;2.30;1.80;;;24.10;56.60;;;;;;221927;1266;22536;-45
2023/07/28 04:02:43;;;;;;;2.80;2.00;;;24.10;56.90;;;;;;222259;1259;25396;-46
2023/07/28 04:07:48;;;;;;;2.00;1.80;;;24.10;56.90;;;;;;221827;1269;22505;-44
2023/07/28 04:12:52;;;;;;;2.30;2.10;;;24.10;56.80;;;;;;221980;1247;24179;-44
2023/07/28 04:17:56;;;;;;;1.80;1.70;;;24.10;57.00;;;;;;221821;1262;22521;-42
2023/07/28 04:23:01;;;;;;;1.90;1.80;;;24.00;57.30;;;;;;221875;1263;24187;-44
2023/07/28 04:28:07;;;;;;;2.30;1.70;;;24.00;57.10;;;;;;221897;1269;22514;-43
2023/07/28 04:33:11;;;;;;;1.70;1.60;;;24.00;57.40;;;;;;221907;1263;22507;-42
2023/07/28 04:38:17;;;;;;;4.30;1.90;;;24.10;57.00;;;;;;221825;1269;25316;-42
2023/07/28 04:43:24;;;;;;;1.70;1.60;;;24.10;57.00;;;;;;222366;1256;25333;-43
2023/07/28 04:48:30;;;;;;;2.50;1.70;;;24.00;57.60;;;;;;221936;1264;25303;-48
2023/07/28 04:53:34;;;;;;;2.10;1.90;;;24.00;57.60;;;;;;222106;1269;22579;-45
2023/07/28 04:58:44;;;;;;;2.10;1.70;;;24.10;57.60;;;;;;221830;1266;22514;-44
2023/07/28 05:03:49;;;;;;;2.10;1.90;;;24.10;57.10;;;;;;221923;1263;22558;-43
2023/07/28 05:08:59;;;;;;;2.50;1.70;;;24.10;57.50;;;;;;222057;1263;22551;-44
2023/07/28 05:14:09;;;;;;;4.50;1.90;;;24.10;57.30;;;;;;221888;1254;22504;-42
2023/07/28 05:19:14;;;;;;;2.80;1.70;;;24.10;57.30;;;;;;221988;1263;22511;-43
2023/07/28 05:24:27;;;;;;;3.80;1.70;;;24.20;57.70;;;;;;222172;1265;23942;-43
2023/07/28 05:29:31;;;;;;;1.80;1.40;;;24.10;57.80;;;;;;222237;1265;22781;-44
2023/07/28 05:34:42;;;;;;;2.60;1.40;;;24.10;58.20;;;;;;221882;1259;25490;-45
2023/07/28 05:39:46;;;;;;;2.90;1.30;;;24.00;58.50;;;;;;222183;1263;22503;-43
2023/07/28 05:44:52;;;;;;;2.80;1.80;;;24.00;58.50;;;;;;221797;1269;22512;-41
2023/07/28 05:49:57;;;;;;;4.70;1.50;;;24.00;58.10;;;;;;224077;1259;22567;-42
2023/07/28 05:55:01;;;;;;;3.50;1.60;;;24.10;57.40;;;;;;222742;1269;23518;-44
2023/07/28 06:00:09;;;;;;;1.50;1.40;;;24.10;57.80;;;;;;221888;1266;22539;-42
2023/07/28 06:05:16;;;;;;;3.80;1.40;;;24.10;58.10;;;;;;222264;1266;22527;-44
2023/07/28 06:10:20;;;;;;;2.40;1.40;;;24.10;58.10;;;;;;222014;1263;22533;-42
2023/07/28 06:15:24;;;;;;;2.40;1.80;;;24.10;58.30;;;;;;222201;1266;22504;-44
2023/07/28 06:20:29;;;;;;;1.80;1.50;;;24.10;58.20;;;;;;221891;1269;22515;-43
2023/07/28 06:25:34;;;;;;;2.20;1.50;;;24.10;58.30;;;;;;222107;1266;22566;-44
2023/07/28 06:30:43;;;;;;;1.20;1.20;;;24.10;58.30;;;;;;222173;1263;25453;-43
2023/07/28 06:35:48;;;;;;;2.10;1.30;;;24.10;58.30;;;;;;221982;1269;23974;-42
2023/07/28 06:40:52;;;;;;;1.40;1.30;;;24.10;58.20;;;;;;221893;1263;22557;-44
2023/07/28 06:45:57;;;;;;;1.50;1.30;;;24.10;58.40;;;;;;221813;1267;23813;-41
2023/07/28 06:51:01;;;;;;;2.80;1.00;;;24.10;58.30;;;;;;221831;1269;22984;-42
2023/07/28 06:56:05;;;;;;;5.50;1.00;;;24.10;58.80;;;;;;221607;1266;25323;-41
2023/07/28 07:01:10;;;;;;;1.70;1.10;;;24.20;58.50;;;;;;221659;1269;23163;-42
2023/07/28 07:06:15;;;;;;;3.00;1.30;;;24.20;58.70;;;;;;222014;1266;25578;-42
2023/07/28 07:11:19;;;;;;;1.30;1.10;;;24.20;59.00;;;;;;222182;1269;22515;-41
2023/07/28 07:16:23;;;;;;;2.50;1.10;;;24.20;59.20;;;;;;221990;1266;23876;-41
2023/07/28 07:21:28;;;;;;;5.00;1.10;;;24.20;60.10;;;;;;221836;1263;24085;-42
2023/07/28 07:26:32;;;;;;;2.80;1.30;;;24.20;59.40;;;;;;222243;1269;22920;-43
2023/07/28 07:31:38;;;;;;;5.40;1.10;;;24.20;60.00;;;;;;222094;1254;23896;-45
2023/07/28 07:36:42;;;;;;;1.50;1.00;;;24.30;60.30;;;;;;222064;1269;22696;-42
2023/07/28 07:41:48;;;;;;;7.00;1.10;;;24.30;61.00;;;;;;221950;1262;24196;-43
2023/07/28 07:46:52;;;;;;;1.10;1.00;;;24.30;61.40;;;;;;222207;1264;22521;-43
2023/07/28 07:51:57;;;;;;;1.00;1.00;;;24.40;61.10;;;;;;221866;1263;22980;-44
2023/07/28 07:57:03;;;;;;;4.40;0.90;;;24.30;60.80;;;;;;222108;1269;24356;-42
2023/07/28 08:02:07;;;;;;;1.50;0.60;;;24.30;61.30;;;;;;222158;1269;22506;-41
2023/07/28 08:07:11;;;;;;;1.50;1.20;;;24.40;60.90;;;;;;221898;1267;22646;-44
2023/07/28 08:12:16;;;;;;;1.10;0.80;;;24.30;61.10;;;;;;221966;1263;22522;-43
2023/07/28 08:17:20;;;;;;;1.10;1.00;;;24.20;61.80;;;;;;221985;1263;22531;-42
2023/07/28 08:22:25;;;;;;;2.50;0.80;;;24.20;61.40;;;;;;221956;1269;24215;-41
2023/07/28 08:27:29;;;;;;;0.70;0.70;;;24.20;61.00;;;;;;221985;1268;23872;-41
2023/07/28 08:32:33;;;;;;;0.70;0.70;;;24.20;61.20;;;;;;221812;1270;22527;-41
2023/07/28 08:37:37;;;;;;;0.70;0.70;;;24.20;60.90;;;;;;222010;1248;22563;-42
2023/07/28 08:42:41;;;;;;;1.10;0.80;;;24.20;61.10;;;;;;221820;1269;24171;-41
2023/07/28 08:47:45;;;;;;;0.80;0.60;;;24.20;60.90;;;;;;222077;1269;24048;-45
2023/07/28 08:52:50;;;;;;;1.10;0.60;;;24.20;60.90;;;;;;221936;1269;24245;-41
2023/07/28 08:57:54;;;;;;;0.90;0.80;;;24.20;61.20;;;;;;222135;1269;25454;-43
2023/07/28 09:02:58;;;;;;;0.50;0.50;;;24.20;61.20;;;;;;221810;1267;24376;-43
2023/07/28 09:08:04;;;;;;;1.60;1.00;;;24.30;61.30;;;;;;221828;1267;24323;-43
2023/07/28 09:13:12;;;;;;;0.70;0.70;;;24.40;61.80;;;;;;222241;1269;24231;-45
2023/07/28 09:18:20;;;;;;;0.90;0.60;;;24.40;61.60;;;;;;222573;1269;22525;-43
2023/07/28 09:23:30;;;;;;;1.60;0.90;;;24.50;62.30;;;;;;221814;1269;25551;-46
2023/07/28 09:28:38;;;;;;;1.40;0.60;;;24.50;62.30;;;;;;221940;1263;24714;-45
2023/07/28 09:33:46;;;;;;;0.60;0.60;;;24.50;62.10;;;;;;222004;1263;25337;-44
2023/07/28 09:38:52;;;;;;;0.50;0.50;;;24.50;62.10;;;;;;222199;1257;23915;-42
2023/07/28 09:43:57;;;;;;;0.80;0.60;;;24.50;62.20;;;;;;221992;1269;22526;-45
2023/07/28 09:49:05;;;;;;;1.50;0.70;;;24.60;62.50;;;;;;222125;1269;22530;-44
2023/07/28 09:54:27;;;;;;;1.70;0.50;;;24.60;62.90;;;;;;222334;1263;22656;-43
2023/07/28 09:59:39;;;;;;;0.80;0.70;;;24.60;63.10;;;;;;222225;1269;22526;-45
2023/07/28 10:04:47;;;;;;;0.50;0.50;;;24.70;62.30;;;;;;222030;1266;22900;-42
2023/07/28 10:09:51;;;;;;;0.70;0.60;;;24.70;62.90;;;;;;222101;1263;22980;-44
2023/07/28 10:15:03;;;;;;;1.10;0.70;;;24.60;63.20;;;;;;221998;1266;25240;-43
2023/07/28 10:20:27;;;;;;;1.10;0.70;;;24.80;62.50;;;;;;222276;1264;22511;-43
2023/07/28 10:25:36;;;;;;;0.60;0.60;;;24.70;63.00;;;;;;222235;1269;24028;-41
2023/07/28 10:30:52;;;;;;;0.80;0.60;;;24.80;62.90;;;;;;222334;1264;22533;-43
2023/07/28 10:35:59;;;;;;;1.00;0.80;;;24.80;63.10;;;;;;221999;1269;25524;-42
2023/07/28 10:41:15;;;;;;;0.90;0.90;;;24.80;62.90;;;;;;222076;1254;24206;-43
2023/07/28 10:46:21;;;;;;;2.20;0.80;;;24.80;63.10;;;;;;222077;1269;22514;-46
2023/07/28 10:51:31;;;;;;;0.80;0.80;;;24.80;63.10;;;;;;222061;1269;23937;-44
2023/07/28 10:56:37;;;;;;;0.70;0.70;;;24.80;62.70;;;;;;222392;1263;26089;-42
2023/07/28 11:01:43;;;;;;;0.50;0.50;;;24.90;62.50;;;;;;223198;1269;22620;-43
2023/07/28 11:06:49;;;;;;;0.50;0.50;;;24.90;62.70;;;;;;220799;1270;25700;-45
2023/07/28 11:11:55;;;;;;;0.60;0.60;;;25.00;62.50;;;;;;220861;1273;22551;-42
2023/07/28 11:17:00;;;;;;;0.80;0.70;;;24.90;62.50;;;;;;220789;1271;24428;-44
2023/07/28 11:22:04;;;;;;;0.80;0.80;;;25.00;62.50;;;;;;221124;1247;25411;-45
2023/07/28 11:27:09;;;;;;;1.00;0.90;;;25.10;62.20;;;;;;222281;1268;22512;-43
2023/07/28 11:32:15;;;;;;;0.90;0.80;;;25.10;61.90;;;;;;222104;1270;24257;-44
2023/07/28 11:37:21;;;;;;;0.80;0.80;;;25.10;61.70;;;;;;221917;1258;24199;-42
2023/07/28 11:42:27;;;;;;;0.80;0.80;;;25.10;61.70;;;;;;222270;1263;22641;-42
2023/07/28 11:47:35;;;;;;;1.10;0.80;;;25.10;61.70;;;;;;222214;1254;24254;-44
2023/07/28 11:52:39;;;;;;;1.60;0.80;;;25.10;61.30;;;;;;222126;1269;24359;-42
2023/07/28 11:57:43;;;;;;;2.00;0.90;;;25.10;61.40;;;;;;222295;1267;22585;-43
2023/07/28 12:02:47;;;;;;;1.20;0.90;;;25.10;61.60;;;;;;222325;1264;24321;-47
2023/07/28 12:07:52;;;;;;;1.10;1.00;;;25.20;61.30;;;;;;221958;1269;25191;-43
2023/07/28 12:12:58;;;;;;;1.50;0.90;;;25.20;61.20;;;;;;222196;1254;22773;-46
2023/07/28 12:18:15;;;;;;;2.30;1.00;;;25.20;61.10;;;;;;222176;1257;23583;-43
2023/07/28 12:23:23;;;;;;;1.20;1.10;;;25.20;61.10;;;;;;222071;1267;22629;-43
2023/07/28 12:28:29;;;;;;;1.40;0.90;;;25.20;61.50;;;;;;222189;1257;24314;-44
2023/07/28 12:33:46;;;;;;;2.30;1.00;;;25.20;61.40;;;;;;221996;1267;24042;-43
2023/07/28 12:38:53;;;;;;;1.00;0.80;;;25.20;60.70;;;;;;221897;1266;22727;-42
2023/07/28 12:43:58;;;;;;;1.40;0.70;;;25.30;60.60;;;;;;222253;1269;22762;-41
2023/07/28 12:49:07;;;;;;;1.30;0.70;;;25.30;60.20;;;;;;222127;1263;23307;-43
2023/07/28 12:54:11;;;;;;;0.70;0.70;;;25.30;60.40;;;;;;222342;1261;23014;-43
2023/07/28 12:59:16;;;;;;;1.10;1.00;;;25.40;60.00;;;;;;222246;1263;24186;-42
2023/07/28 13:04:23;;;;;;;2.90;0.80;;;25.40;60.00;;;;;;222175;1264;25462;-42
2023/07/28 13:09:28;;;;;;;0.90;0.70;;;25.40;60.00;;;;;;222152;1269;22619;-41
2023/07/28 13:14:35;;;;;;;1.10;0.70;;;25.40;60.40;;;;;;221713;1269;25395;-43
2023/07/28 13:19:39;;;;;;;2.50;1.50;;;25.40;59.80;;;;;;221962;1269;25319;-43
2023/07/28 13:24:43;;;;;;;1.70;0.90;;;25.40;59.50;;;;;;222082;1267;24668;-43
2023/07/28 13:29:47;;;;;;;1.60;0.70;;;25.50;59.30;;;;;;222222;1262;22537;-44
2023/07/28 13:34:52;;;;;;;0.70;0.70;;;25.60;59.10;;;;;;222189;1256;23947;-43
2023/07/28 13:39:57;;;;;;;0.60;0.60;;;25.70;59.20;;;;;;222274;1254;25290;-42
2023/07/28 13:45:01;;;;;;;2.50;0.60;;;25.70;59.10;;;;;;222127;1254;22524;-43
2023/07/28 13:50:07;;;;;;;0.80;0.80;;;25.70;59.00;;;;;;222223;1254;22515;-42
2023/07/28 13:55:11;;;;;;;1.90;0.90;;;25.80;58.90;;;;;;222206;1261;25285;-43
2023/07/28 14:00:16;;;;;;;1.40;0.70;;;25.70;58.90;;;;;;222122;1262;24279;-43
2023/07/28 14:05:22;;;;;;;1.20;0.80;;;25.70;58.50;;;;;;222203;1256;24228;-42
2023/07/28 14:10:27;;;;;;;0.80;0.80;;;25.70;58.30;;;;;;222188;1254;22561;-42
2023/07/28 14:15:33;;;;;;;1.90;0.70;;;25.60;58.30;;;;;;221840;1254;218041;-42
2023/07/28 14:20:37;;;;;;;1.60;0.80;;;25.70;58.60;;;;;;222399;1255;22606;-43
2023/07/28 14:25:41;;;;;;;0.50;0.40;;;25.70;58.20;;;;;;222096;1263;24444;-44
2023/07/28 14:30:46;;;;;;;0.70;0.70;;;25.70;58.10;;;;;;222364;1262;22625;-41
2023/07/28 14:35:50;;;;;;;0.80;0.70;;;25.70;57.90;;;;;;222248;1263;23010;-42
2023/07/28 14:40:55;;;;;;;0.60;0.60;;;25.80;57.50;;;;;;222196;1255;22550;-44
2023/07/28 14:45:58;;;;;;;3.00;0.80;;;25.70;57.50;;;;;;222015;1255;24245;-42
2023/07/28 14:51:03;;;;;;;0.70;0.70;;;25.70;57.60;;;;;;222131;1263;25316;-43
2023/07/28 14:56:07;;;;;;;1.50;0.60;;;25.60;57.30;;;;;;222461;1263;25268;-42
2023/07/28 15:01:12;;;;;;;0.60;0.50;;;25.70;57.00;;;;;;221987;1263;24216;-43
2023/07/28 15:06:16;;;;;;;0.60;0.50;;;25.70;56.80;;;;;;222160;1253;24049;-45
2023/07/28 15:11:20;;;;;;;0.50;0.50;;;25.70;57.00;;;;;;222091;1256;22511;-43
2023/07/28 15:16:25;;;;;;;0.50;0.50;;;25.70;56.60;;;;;;222244;1263;22599;-42
2023/07/28 15:21:29;;;;;;;0.60;0.40;;;25.70;56.60;;;;;;222393;1254;24048;-43
2023/07/28 15:26:35;;;;;;;0.50;0.50;;;25.70;56.20;;;;;;221999;1263;24034;-43
2023/07/28 15:31:39;;;;;;;3.50;0.80;;;25.70;56.40;;;;;;222136;1264;25396;-46
2023/07/28 15:36:43;;;;;;;2.30;0.50;;;25.70;56.10;;;;;;222231;1255;24235;-45
2023/07/28 15:41:48;;;;;;;0.60;0.60;;;25.70;56.30;;;;;;222145;1266;24060;-43
2023/07/28 15:46:52;;;;;;;0.50;0.50;;;25.70;56.00;;;;;;221863;1263;22621;-42
2023/07/28 15:51:57;;;;;;;0.60;0.60;;;25.70;56.00;;;;;;222166;1264;24168;-43
2023/07/28 15:57:01;;;;;;;1.20;0.50;;;25.70;55.90;;;;;;221943;1263;24351;-43
2023/07/28 16:02:06;;;;;;;0.40;0.30;;;25.70;55.90;;;;;;222170;1264;22522;-43
2023/07/28 16:07:10;;;;;;;3.00;0.60;;;25.70;56.00;;;;;;222396;1256;22536;-43
2023/07/28 16:12:15;;;;;;;0.50;0.50;;;25.70;55.90;;;;;;222058;1253;22509;-46
2023/07/28 16:17:19;;;;;;;2.00;0.60;;;25.70;55.80;;;;;;221952;1263;22530;-43
2023/07/28 16:22:23;;;;;;;0.60;0.60;;;25.70;55.60;;;;;;222083;1254;22520;-45
2023/07/28 16:27:28;;;;;;;0.80;0.60;;;25.70;56.00;;;;;;222168;1263;24242;-42
2023/07/28 16:32:32;;;;;;;1.30;0.40;;;25.70;55.70;;;;;;222176;1262;22693;-42
2023/07/28 16:37:37;;;;;;;2.70;0.20;;;25.70;55.60;;;;;;222000;1262;23150;-42
2023/07/28 16:42:41;;;;;;;0.50;0.40;;;25.70;55.80;;;;;;222201;1262;22521;-43
2023/07/28 16:47:48;;;;;;;0.80;0.40;;;25.70;55.80;;;;;;222083;1266;25777;-42
2023/07/28 16:52:52;;;;;;;0.70;0.50;;;25.70;55.60;;;;;;222038;1265;22525;-43
2023/07/28 16:57:56;;;;;;;0.60;0.60;;;25.70;55.50;;;;;;221981;1262;23879;-43
2023/07/28 17:03:00;;;;;;;4.60;0.90;;;25.70;55.40;;;;;;222238;1262;22774;-44
2023/07/28 17:08:05;;;;;;;2.30;0.70;;;25.70;55.90;;;;;;222130;1263;24193;-44
2023/07/28 17:13:09;;;;;;;5.00;0.80;;;25.90;55.70;;;;;;222004;1259;22535;-43
2023/07/28 17:18:13;;;;;;;4.00;0.70;;;25.60;56.10;;;;;;221984;1263;24261;-43
2023/07/28 17:23:18;;;;;;;0.60;0.60;;;25.50;55.70;;;;;;222066;1262;22662;-42
2023/07/28 17:28:22;;;;;;;2.00;0.90;;;25.40;56.40;;;;;;222205;1262;24196;-45
2023/07/28 17:33:26;;;;;;;1.00;0.70;;;25.30;56.30;;;;;;222146;1254;25967;-42
2023/07/28 17:38:30;;;;;;;7.40;1.10;;;25.20;58.10;;;;;;222244;1263;24243;-42
2023/07/28 17:43:35;;;;;;;13.20;1.00;;;25.30;59.40;;;;;;221905;1263;22510;-42
2023/07/28 17:48:41;;;;;;;3.70;0.90;;;25.40;60.00;;;;;;221912;1263;22532;-44
2023/07/28 17:53:48;;;;;;;3.70;1.10;;;25.50;59.70;;;;;;222519;1263;24186;-40
2023/07/28 17:58:52;;;;;;;3.80;1.10;;;25.50;59.60;;;;;;221938;1256;24297;-41
2023/07/28 18:03:56;;;;;;;2.70;0.80;;;25.50;59.80;;;;;;221988;1263;24053;-41
2023/07/28 18:09:02;;;;;;;5.20;4.90;;;25.60;59.60;;;;;;222228;1263;24215;-43
2023/07/28 18:14:07;;;;;;;8.80;8.10;;;25.60;60.30;;;;;;221915;1263;22582;-42
2023/07/28 18:19:12;;;;;;;5.10;4.70;;;25.60;61.50;;;;;;222008;1263;26070;-45
2023/07/28 18:24:20;;;;;;;3.60;3.20;;;25.60;60.90;;;;;;222254;1266;22535;-43
2023/07/28 18:29:24;;;;;;;2.90;2.50;;;25.60;60.60;;;;;;222358;1269;22912;-41
2023/07/28 18:34:28;;;;;;;3.30;1.40;;;25.60;60.70;;;;;;222123;1266;22520;-42
2023/07/28 18:39:34;;;;;;;3.80;1.40;;;25.60;60.50;;;;;;222136;1256;22508;-42
2023/07/28 18:44:38;;;;;;;10.80;1.40;;;25.50;61.10;;;;;;222232;1262;24347;-43
2023/07/28 18:49:43;;;;;;;6.60;1.20;;;25.60;60.90;;;;;;221911;1265;22642;-42
2023/07/28 18:54:48;;;;;;;11.10;1.10;;;25.70;60.60;;;;;;222032;1259;22534;-43
2023/07/28 18:59:52;;;;;;;7.50;1.00;;;25.70;60.20;;;;;;222261;1248;22711;-43
2023/07/28 19:04:57;;;;;;;6.70;1.20;;;25.70;61.10;;;;;;221909;1263;22504;-42
2023/07/28 19:10:03;;;;;;;4.20;1.10;;;25.60;60.60;;;;;;222277;1263;24202;-43
2023/07/28 19:15:08;;;;;;;15.00;1.70;;;25.60;60.60;;;;;;222090;1263;22654;-43
2023/07/28 19:20:15;;;;;;;8.10;2.00;;;25.50;60.50;;;;;;222367;1256;25313;-42
2023/07/28 19:25:20;;;;;;;3.30;1.30;;;25.70;63.60;;;;;;222726;1263;22751;-42
2023/07/28 19:30:25;;;;;;;2.70;0.90;;;25.60;62.10;;;;;;222229;1263;22510;-43
2023/07/28 19:35:29;;;;;;;4.80;1.10;;;25.70;61.10;;;;;;222673;1263;25172;-42
2023/07/28 19:40:34;;;;;;;1.50;1.20;;;25.60;60.90;;;;;;222732;1263;24222;-40
2023/07/28 19:45:39;;;;;;;4.40;1.50;;;25.60;60.60;;;;;;222744;1262;22527;-42
2023/07/28 19:50:44;;;;;;;3.30;1.40;;;25.60;61.90;;;;;;222346;1269;22523;-42
2023/07/28 19:55:51;;;;;;;2.80;1.10;;;25.70;63.60;;;;;;222521;1269;22623;-42
2023/07/28 20:00:56;;;;;;;3.20;1.30;;;25.60;63.50;;;;;;222241;1263;24334;-43
2023/07/28 20:06:01;;;;;;;3.70;1.30;;;25.70;66.40;;;;;;222634;1254;24577;-42
2023/07/28 20:11:05;;;;;;;5.10;1.50;;;25.60;65.20;;;;;;222048;1263;24312;-43
2023/07/28 20:16:10;;;;;;;6.80;1.30;;;25.60;66.60;;;;;;221991;1266;25278;-43
2023/07/28 20:21:15;;;;;;;15.90;2.40;;;25.70;66.90;;;;;;222100;1259;22521;-41
2023/07/28 20:26:20;;;;;;;7.10;2.00;;;25.60;66.30;;;;;;222089;1263;25161;-44
2023/07/28 20:31:27;;;;;;;8.10;1.70;;;25.70;65.20;;;;;;222314;1262;24042;-42
2023/07/28 20:36:31;;;;;;;5.10;1.80;;;25.60;63.80;;;;;;221736;1269;27618;-41
2023/07/28 20:41:36;;;;;;;5.30;1.70;;;25.40;62.60;;;;;;221274;1265;22542;-41
2023/07/28 20:46:40;;;;;;;2.70;1.70;;;25.00;62.80;;;;;;221273;1266;22556;-41
2023/07/28 20:51:45;;;;;;;4.00;2.40;;;24.90;62.70;;;;;;221305;1262;22608;-45
2023/07/28 20:56:50;;;;;;;5.80;2.50;;;24.80;63.10;;;;;;221403;1266;22530;-42
2023/07/28 21:01:54;;;;;;;2.30;2.10;;;24.60;63.40;;;;;;221763;1259;22510;-44
2023/07/28 21:06:59;;;;;;;2.90;1.60;;;24.60;63.50;;;;;;221445;1262;24473;-41
2023/07/28 21:12:03;;;;;;;5.10;1.90;;;24.50;63.10;;;;;;221530;1261;22523;-41
2023/07/28 21:17:07;;;;;;;4.30;1.90;;;24.60;63.60;;;;;;221797;1263;22598;-41
2023/07/28 21:22:11;;;;;;;5.40;2.10;;;24.70;62.60;;;;;;224153;1263;23900;-41
2023/07/28 21:27:15;;;;;;;1.90;1.40;;;24.60;62.40;;;;;;221981;1256;22503;-39
2023/07/28 21:32:19;;;;;;;3.80;2.10;;;24.60;63.50;;;;;;221930;1264;23945;-40
2023/07/28 21:37:24;;;;;;;4.40;2.50;;;24.70;62.90;;;;;;221937;1262;24298;-43
2023/07/28 21:42:28;;;;;;;4.40;2.20;;;24.70;63.00;;;;;;221872;1259;22513;-41
2023/07/28 21:47:34;;;;;;;2.90;2.30;;;24.70;63.20;;;;;;221926;1256;22531;-40
2023/07/28 21:52:44;;;;;;;2.90;2.60;;;24.70;63.00;;;;;;221947;1263;22536;-42
2023/07/28 21:57:52;;;;;;;4.10;2.80;;;24.80;63.20;;;;;;221983;1257;24312;-41
2023/07/28 22:02:56;;;;;;;2.50;2.30;;;25.10;62.50;;;;;;222059;1256;26491;-41
2023/07/28 22:08:10;;;;;;;2.70;2.50;;;25.20;63.00;;;;;;222220;1254;22521;-40
2023/07/28 22:13:15;;;;;;;2.60;2.40;;;25.10;63.20;;;;;;222323;1262;22533;-41
2023/07/28 22:18:20;;;;;;;2.40;2.20;;;25.20;63.60;;;;;;222036;1263;22530;-41
2023/07/28 22:23:23;;;;;;;2.70;2.10;;;25.30;63.40;;;;;;222002;1262;26803;-40
2023/07/28 22:28:28;;;;;;;4.00;1.90;;;25.30;63.20;;;;;;221857;1254;22574;-41
2023/07/28 22:33:33;;;;;;;2.10;1.90;;;25.20;63.20;;;;;;222122;1263;22740;-40
2023/07/28 22:38:38;;;;;;;1.90;1.80;;;25.30;63.50;;;;;;222086;1262;24298;-42
2023/07/28 22:43:42;;;;;;;2.00;1.80;;;25.40;62.70;;;;;;221968;1263;22922;-41
2023/07/28 22:48:46;;;;;;;4.30;2.00;;;25.40;62.90;;;;;;222261;1266;24242;-43
2023/07/28 22:53:51;;;;;;;2.20;2.10;;;25.30;63.30;;;;;;222271;1252;25347;-41
2023/07/28 22:58:55;;;;;;;2.00;1.80;;;25.30;62.80;;;;;;222082;1263;22511;-42
2023/07/28 23:03:59;;;;;;;4.70;2.10;;;25.30;62.40;;;;;;222073;1262;23875;-45
2023/07/28 23:09:04;;;;;;;3.40;1.70;;;25.30;62.60;;;;;;221904;1260;24339;-51
2023/07/28 23:14:08;;;;;;;1.50;1.40;;;25.40;62.90;;;;;;221863;1256;24673;-50
2023/07/28 23:19:12;;;;;;;2.00;1.80;;;25.40;62.20;;;;;;221537;1263;24526;-50
2023/07/28 23:24:17;;;;;;;1.60;1.50;;;25.50;62.00;;;;;;222171;1262;25466;-52
2023/07/28 23:29:21;;;;;;;1.90;1.70;;;25.50;62.00;;;;;;221452;1256;23067;-52
2023/07/28 23:34:25;;;;;;;1.80;1.70;;;25.50;62.30;;;;;;222379;1263;22577;-53
2023/07/28 23:39:30;;;;;;;2.50;1.90;;;25.60;62.30;;;;;;221975;1258;23615;-47
2023/07/28 23:44:34;;;;;;;2.00;1.90;;;25.60;62.50;;;;;;222050;1256;22524;-50
2023/07/28 23:49:39;;;;;;;2.10;1.90;;;25.60;62.60;;;;;;222011;1264;22533;-51
2023/07/28 23:54:43;;;;;;;2.00;1.80;;;25.60;62.80;;;;;;222000;1257;26333;-50
2023/07/28 23:59:47;;;;;;;3.40;2.20;;;25.50;62.70;;;;;;222108;1256;24436;-52
